sensor_id;sensor_type;location;lat;lon;timestamp;temperature;humidity
13470;DHT22;6807;48.682;9.032;2023-10-19T00:00:47;11.50;1.00
13470;DHT22;6807;48.682;9.032;2023-10-19T00:03:16;11.50;1.00
13470;DHT22;6807;48.682;9.032;2023-10-19T00:08:10;11.60;1.00
13470;DHT22;6807;48.682;9.032;2023-10-19T00:10:43;12.10;1.00
13470;DHT22;6807;48.682;9.032;2023-10-19T00:13:10;11.80;1.00
13470;DHT22;6807;48.682;9.032;2023-10-19T00:15:38;12.20;1.00
13470;DHT22;6807;48.682;9.032;2023-10-19T00:18:06;12.00;1.00
13470;DHT22;6807;48.682;9.032;2023-10-19T00:20:47;12.10;1.00
13470;DHT22;6807;48.682;9.032;2023-10-19T00:23:30;12.20;1.00
13470;DHT22;6807;48.682;9.032;2023-10-19T00:25:58;12.20;1.00
13470;DHT22;6807;48.682;9.032;2023-10-19T00:28:26;12.20;1.00
13470;DHT22;6807;48.682;9.032;2023-10-19T00:30:52;12.20;1.00
13470;DHT22;6807;48.682;9.032;2023-10-19T00:35:54;12.40;1.00
13470;DHT22;6807;48.682;9.032;2023-10-19T00:38:25;12.50;99.90
13470;DHT22;6807;48.682;9.032;2023-10-19T00:41:07;12.10;1.00
13470;DHT22;6807;48.682;9.032;2023-10-19T00:43:40;12.40;1.00
13470;DHT22;6807;48.682;9.032;2023-10-19T00:48:49;12.80;1.00
13470;DHT22;6807;48.682;9.032;2023-10-19T00:51:17;12.40;1.00
13470;DHT22;6807;48.682;9.032;2023-10-19T00:54:06;12.50;81.80
13470;DHT22;6807;48.682;9.032;2023-10-19T00:56:37;12.50;1.00
13470;DHT22;6807;48.682;9.032;2023-10-19T00:59:06;12.60;1.00
13470;DHT22;6807;48.682;9.032;2023-10-19T01:01:38;12.60;99.90
13470;DHT22;6807;48.682;9.032;2023-10-19T01:04:09;12.90;1.00
13470;DHT22;6807;48.682;9.032;2023-10-19T01:06:40;12.60;1.00
13470;DHT22;6807;48.682;9.032;2023-10-19T01:09:10;12.70;1.00
13470;DHT22;6807;48.682;9.032;2023-10-19T01:11:42;12.70;1.00
13470;DHT22;6807;48.682;9.032;2023-10-19T01:14:18;12.80;99.90
13470;DHT22;6807;48.682;9.032;2023-10-19T01:16:45;12.80;65.80
13470;DHT22;6807;48.682;9.032;2023-10-19T01:19:15;12.80;1.00
13470;DHT22;6807;48.682;9.032;2023-10-19T01:21:44;12.80;99.90
13470;DHT22;6807;48.682;9.032;2023-10-19T01:24:18;12.90;99.90
13470;DHT22;6807;48.682;9.032;2023-10-19T01:26:47;12.90;77.10
13470;DHT22;6807;48.682;9.032;2023-10-19T01:29:14;12.90;99.90
13470;DHT22;6807;48.682;9.032;2023-10-19T01:31:43;13.10;1.00
13470;DHT22;6807;48.682;9.032;2023-10-19T01:36:48;12.80;99.90
13470;DHT22;6807;48.682;9.032;2023-10-19T01:39:17;12.80;99.90
13470;DHT22;6807;48.682;9.032;2023-10-19T01:41:45;12.80;99.90
13470;DHT22;6807;48.682;9.032;2023-10-19T01:44:11;12.90;1.00
13470;DHT22;6807;48.682;9.032;2023-10-19T01:46:41;12.90;99.90
13470;DHT22;6807;48.682;9.032;2023-10-19T01:49:09;12.80;6.10
13470;DHT22;6807;48.682;9.032;2023-10-19T01:51:36;12.90;1.00
13470;DHT22;6807;48.682;9.032;2023-10-19T01:54:04;12.80;1.00
13470;DHT22;6807;48.682;9.032;2023-10-19T01:56:34;12.70;1.00
13470;DHT22;6807;48.682;9.032;2023-10-19T01:59:01;12.80;99.90
13470;DHT22;6807;48.682;9.032;2023-10-19T02:01:30;12.80;99.90
13470;DHT22;6807;48.682;9.032;2023-10-19T02:03:59;12.60;99.90
13470;DHT22;6807;48.682;9.032;2023-10-19T02:06:27;12.60;99.90
13470;DHT22;6807;48.682;9.032;2023-10-19T02:08:56;12.70;99.90
13470;DHT22;6807;48.682;9.032;2023-10-19T02:11:27;12.40;99.90
13470;DHT22;6807;48.682;9.032;2023-10-19T02:13:56;12.40;42.40
13470;DHT22;6807;48.682;9.032;2023-10-19T02:16:26;12.50;99.90
13470;DHT22;6807;48.682;9.032;2023-10-19T02:18:55;12.40;99.90
13470;DHT22;6807;48.682;9.032;2023-10-19T02:21:21;12.10;1.00
13470;DHT22;6807;48.682;9.032;2023-10-19T02:26:17;12.00;1.00
13470;DHT22;6807;48.682;9.032;2023-10-19T02:28:45;11.80;99.90
13470;DHT22;6807;48.682;9.032;2023-10-19T02:31:13;12.10;92.60
13470;DHT22;6807;48.682;9.032;2023-10-19T02:33:46;11.60;99.90
13470;DHT22;6807;48.682;9.032;2023-10-19T02:36:17;11.60;98.20
13470;DHT22;6807;48.682;9.032;2023-10-19T02:38:45;11.60;99.90
13470;DHT22;6807;48.682;9.032;2023-10-19T02:41:15;11.80;39.40
13470;DHT22;6807;48.682;9.032;2023-10-19T02:48:40;11.40;1.00
13470;DHT22;6807;48.682;9.032;2023-10-19T02:51:11;13.50;8.90
13470;DHT22;6807;48.682;9.032;2023-10-19T02:53:37;11.50;1.00
13470;DHT22;6807;48.682;9.032;2023-10-19T02:56:12;11.50;99.90
13470;DHT22;6807;48.682;9.032;2023-10-19T02:58:42;12.00;98.20
13470;DHT22;6807;48.682;9.032;2023-10-19T03:01:13;10.50;1.00
13470;DHT22;6807;48.682;9.032;2023-10-19T03:03:44;11.50;51.10
13470;DHT22;6807;48.682;9.032;2023-10-19T03:06:10;11.40;1.00
13470;DHT22;6807;48.682;9.032;2023-10-19T03:11:03;11.70;10.90
13470;DHT22;6807;48.682;9.032;2023-10-19T03:13:34;11.20;1.00
13470;DHT22;6807;48.682;9.032;2023-10-19T03:18:33;11.10;99.90
13470;DHT22;6807;48.682;9.032;2023-10-19T03:21:00;11.30;56.80
13470;DHT22;6807;48.682;9.032;2023-10-19T03:23:27;11.60;1.00
13470;DHT22;6807;48.682;9.032;2023-10-19T03:25:55;11.00;1.00
13470;DHT22;6807;48.682;9.032;2023-10-19T03:33:44;12.20;1.00
13470;DHT22;6807;48.682;9.032;2023-10-19T03:36:15;11.20;39.00
13470;DHT22;6807;48.682;9.032;2023-10-19T03:46:06;11.00;1.00
13470;DHT22;6807;48.682;9.032;2023-10-19T03:48:45;10.80;1.00
13470;DHT22;6807;48.682;9.032;2023-10-19T03:51:12;10.70;50.90
13470;DHT22;6807;48.682;9.032;2023-10-19T03:53:42;10.60;99.90
13470;DHT22;6807;48.682;9.032;2023-10-19T03:56:14;10.60;99.90
13470;DHT22;6807;48.682;9.032;2023-10-19T03:58:43;10.60;1.00
13470;DHT22;6807;48.682;9.032;2023-10-19T04:01:13;10.80;99.90
13470;DHT22;6807;48.682;9.032;2023-10-19T04:06:09;11.00;1.00
13470;DHT22;6807;48.682;9.032;2023-10-19T04:08:40;11.20;99.90
13470;DHT22;6807;48.682;9.032;2023-10-19T04:11:09;11.10;99.90
13470;DHT22;6807;48.682;9.032;2023-10-19T04:13:48;11.20;1.00
13470;DHT22;6807;48.682;9.032;2023-10-19T04:16:18;11.40;1.00
13470;DHT22;6807;48.682;9.032;2023-10-19T04:18:46;11.60;1.00
13470;DHT22;6807;48.682;9.032;2023-10-19T04:26:09;11.60;1.00
13470;DHT22;6807;48.682;9.032;2023-10-19T04:28:40;11.80;43.90
13470;DHT22;6807;48.682;9.032;2023-10-19T04:31:16;11.80;7.60
13470;DHT22;6807;48.682;9.032;2023-10-19T04:33:45;11.80;99.90
13470;DHT22;6807;48.682;9.032;2023-10-19T04:36:16;11.80;1.00
13470;DHT22;6807;48.682;9.032;2023-10-19T04:38:47;11.90;27.60
13470;DHT22;6807;48.682;9.032;2023-10-19T04:41:15;11.90;1.00
13470;DHT22;6807;48.682;9.032;2023-10-19T04:43:42;11.90;99.90
13470;DHT22;6807;48.682;9.032;2023-10-19T04:46:15;11.80;99.90
13470;DHT22;6807;48.682;9.032;2023-10-19T04:48:44;11.80;99.90
13470;DHT22;6807;48.682;9.032;2023-10-19T04:51:11;11.90;92.20
13470;DHT22;6807;48.682;9.032;2023-10-19T04:53:38;11.70;72.00
13470;DHT22;6807;48.682;9.032;2023-10-19T04:56:06;12.00;84.60
13470;DHT22;6807;48.682;9.032;2023-10-19T04:58:36;12.20;91.30
13470;DHT22;6807;48.682;9.032;2023-10-19T05:01:03;11.90;1.00
13470;DHT22;6807;48.682;9.032;2023-10-19T05:03:30;12.00;99.90
13470;DHT22;6807;48.682;9.032;2023-10-19T05:10:54;12.10;99.90
13470;DHT22;6807;48.682;9.032;2023-10-19T05:13:21;12.10;99.90
13470;DHT22;6807;48.682;9.032;2023-10-19T05:20:46;12.10;93.70
13470;DHT22;6807;48.682;9.032;2023-10-19T05:23:13;12.50;19.20
13470;DHT22;6807;48.682;9.032;2023-10-19T05:25:40;12.20;99.90
13470;DHT22;6807;48.682;9.032;2023-10-19T05:28:07;12.10;99.90
13470;DHT22;6807;48.682;9.032;2023-10-19T05:30:35;12.30;99.90
13470;DHT22;6807;48.682;9.032;2023-10-19T05:33:04;11.80;1.00
13470;DHT22;6807;48.682;9.032;2023-10-19T05:35:31;12.10;1.00
13470;DHT22;6807;48.682;9.032;2023-10-19T05:38:00;12.00;99.90
13470;DHT22;6807;48.682;9.032;2023-10-19T05:40:28;12.00;91.20
13470;DHT22;6807;48.682;9.032;2023-10-19T05:42:56;12.10;1.00
13470;DHT22;6807;48.682;9.032;2023-10-19T05:45:26;12.10;1.00
13470;DHT22;6807;48.682;9.032;2023-10-19T05:47:54;12.00;1.00
13470;DHT22;6807;48.682;9.032;2023-10-19T05:50:23;12.20;1.00
13470;DHT22;6807;48.682;9.032;2023-10-19T05:52:50;12.10;1.00
13470;DHT22;6807;48.682;9.032;2023-10-19T05:55:17;12.10;1.00
13470;DHT22;6807;48.682;9.032;2023-10-19T05:57:46;12.10;1.00
13470;DHT22;6807;48.682;9.032;2023-10-19T06:00:15;12.10;1.00
13470;DHT22;6807;48.682;9.032;2023-10-19T06:02:45;12.20;1.00
13470;DHT22;6807;48.682;9.032;2023-10-19T06:05:13;12.20;1.00
13470;DHT22;6807;48.682;9.032;2023-10-19T06:07:43;12.30;1.00
13470;DHT22;6807;48.682;9.032;2023-10-19T06:10:12;12.30;1.00
13470;DHT22;6807;48.682;9.032;2023-10-19T06:15:10;12.40;1.00
13470;DHT22;6807;48.682;9.032;2023-10-19T06:17:38;12.30;1.00
13470;DHT22;6807;48.682;9.032;2023-10-19T06:20:07;12.30;1.00
13470;DHT22;6807;48.682;9.032;2023-10-19T06:22:34;12.50;99.90
13470;DHT22;6807;48.682;9.032;2023-10-19T06:25:04;12.40;1.00
13470;DHT22;6807;48.682;9.032;2023-10-19T06:29:59;12.50;29.90
13470;DHT22;6807;48.682;9.032;2023-10-19T06:32:27;13.00;1.00
13470;DHT22;6807;48.682;9.032;2023-10-19T06:37:22;12.00;1.00
13470;DHT22;6807;48.682;9.032;2023-10-19T06:39:49;12.50;1.00
13470;DHT22;6807;48.682;9.032;2023-10-19T06:42:18;12.40;1.00
13470;DHT22;6807;48.682;9.032;2023-10-19T06:44:45;12.60;1.00
13470;DHT22;6807;48.682;9.032;2023-10-19T06:47:12;12.40;1.00
13470;DHT22;6807;48.682;9.032;2023-10-19T06:49:39;12.50;1.00
13470;DHT22;6807;48.682;9.032;2023-10-19T06:52:06;12.50;1.00
13470;DHT22;6807;48.682;9.032;2023-10-19T06:54:37;12.50;1.00
13470;DHT22;6807;48.682;9.032;2023-10-19T06:57:03;12.50;1.00
13470;DHT22;6807;48.682;9.032;2023-10-19T06:59:32;12.70;1.00
13470;DHT22;6807;48.682;9.032;2023-10-19T07:01:59;12.50;99.90
13470;DHT22;6807;48.682;9.032;2023-10-19T07:04:28;12.60;1.00
13470;DHT22;6807;48.682;9.032;2023-10-19T07:06:55;12.90;1.00
13470;DHT22;6807;48.682;9.032;2023-10-19T07:09:22;12.60;1.00
13470;DHT22;6807;48.682;9.032;2023-10-19T07:11:50;12.50;1.00
13470;DHT22;6807;48.682;9.032;2023-10-19T07:14:19;12.50;1.00
13470;DHT22;6807;48.682;9.032;2023-10-19T07:16:55;12.70;99.90
13470;DHT22;6807;48.682;9.032;2023-10-19T07:19:22;12.70;99.90
13470;DHT22;6807;48.682;9.032;2023-10-19T07:21:49;12.70;99.90
13470;DHT22;6807;48.682;9.032;2023-10-19T07:24:22;12.70;99.90
13470;DHT22;6807;48.682;9.032;2023-10-19T07:26:50;13.10;1.00
13470;DHT22;6807;48.682;9.032;2023-10-19T07:29:28;13.20;1.00
13470;DHT22;6807;48.682;9.032;2023-10-19T07:31:57;13.40;1.00
13470;DHT22;6807;48.682;9.032;2023-10-19T07:34:24;13.10;99.90
13470;DHT22;6807;48.682;9.032;2023-10-19T07:36:54;13.20;99.90
13470;DHT22;6807;48.682;9.032;2023-10-19T07:39:21;13.30;99.90
13470;DHT22;6807;48.682;9.032;2023-10-19T07:41:48;13.40;99.90
13470;DHT22;6807;48.682;9.032;2023-10-19T07:44:15;13.50;99.90
13470;DHT22;6807;48.682;9.032;2023-10-19T07:50:01;13.90;99.90
13470;DHT22;6807;48.682;9.032;2023-10-19T07:52:28;13.90;32.70
13470;DHT22;6807;48.682;9.032;2023-10-19T07:54:55;14.00;1.00
13470;DHT22;6807;48.682;9.032;2023-10-19T07:57:22;14.10;1.00
13470;DHT22;6807;48.682;9.032;2023-10-19T07:59:50;14.20;1.00
13470;DHT22;6807;48.682;9.032;2023-10-19T08:02:17;14.50;99.90
13470;DHT22;6807;48.682;9.032;2023-10-19T08:04:44;14.50;1.00
13470;DHT22;6807;48.682;9.032;2023-10-19T08:07:12;14.70;1.00
13470;DHT22;6807;48.682;9.032;2023-10-19T08:09:40;15.10;1.00
13470;DHT22;6807;48.682;9.032;2023-10-19T08:12:06;15.50;1.00
13470;DHT22;6807;48.682;9.032;2023-10-19T08:14:34;16.20;99.90
13470;DHT22;6807;48.682;9.032;2023-10-19T08:17:01;16.80;1.00
13470;DHT22;6807;48.682;9.032;2023-10-19T08:19:29;17.20;1.00
13470;DHT22;6807;48.682;9.032;2023-10-19T08:21:57;18.00;1.00
13470;DHT22;6807;48.682;9.032;2023-10-19T08:24:25;18.50;99.90
13470;DHT22;6807;48.682;9.032;2023-10-19T08:26:54;18.90;99.90
13470;DHT22;6807;48.682;9.032;2023-10-19T08:29:21;19.30;1.00
13470;DHT22;6807;48.682;9.032;2023-10-19T08:31:49;19.50;1.00
13470;DHT22;6807;48.682;9.032;2023-10-19T08:34:16;19.30;1.00
13470;DHT22;6807;48.682;9.032;2023-10-19T08:36:45;19.40;1.00
13470;DHT22;6807;48.682;9.032;2023-10-19T08:39:12;19.40;1.00
13470;DHT22;6807;48.682;9.032;2023-10-19T08:41:40;19.30;97.50
13470;DHT22;6807;48.682;9.032;2023-10-19T08:44:08;19.40;1.00
13470;DHT22;6807;48.682;9.032;2023-10-19T08:46:39;19.50;1.00
13470;DHT22;6807;48.682;9.032;2023-10-19T08:49:08;19.80;1.00
13470;DHT22;6807;48.682;9.032;2023-10-19T08:51:36;19.80;1.00
13470;DHT22;6807;48.682;9.032;2023-10-19T08:54:05;19.80;1.00
13470;DHT22;6807;48.682;9.032;2023-10-19T08:56:32;19.70;91.60
13470;DHT22;6807;48.682;9.032;2023-10-19T08:59:02;19.60;99.90
13470;DHT22;6807;48.682;9.032;2023-10-19T09:01:30;19.40;1.00
13470;DHT22;6807;48.682;9.032;2023-10-19T09:03:57;19.00;1.00
13470;DHT22;6807;48.682;9.032;2023-10-19T09:06:24;18.70;1.00
13470;DHT22;6807;48.682;9.032;2023-10-19T09:08:51;18.90;99.90
13470;DHT22;6807;48.682;9.032;2023-10-19T09:11:18;18.50;1.00
13470;DHT22;6807;48.682;9.032;2023-10-19T09:13:47;18.50;19.40
13470;DHT22;6807;48.682;9.032;2023-10-19T09:16:17;18.50;1.00
13470;DHT22;6807;48.682;9.032;2023-10-19T09:18:45;18.50;96.80
13470;DHT22;6807;48.682;9.032;2023-10-19T09:21:15;18.80;43.70
13470;DHT22;6807;48.682;9.032;2023-10-19T09:23:49;19.00;1.00
13470;DHT22;6807;48.682;9.032;2023-10-19T09:26:16;19.40;99.90
13470;DHT22;6807;48.682;9.032;2023-10-19T09:28:46;19.30;1.00
13470;DHT22;6807;48.682;9.032;2023-10-19T09:31:14;19.60;1.00
13470;DHT22;6807;48.682;9.032;2023-10-19T09:33:44;19.60;1.00
13470;DHT22;6807;48.682;9.032;2023-10-19T09:36:12;19.70;1.00
13470;DHT22;6807;48.682;9.032;2023-10-19T09:38:39;19.90;1.00
13470;DHT22;6807;48.682;9.032;2023-10-19T09:41:12;20.00;1.00
13470;DHT22;6807;48.682;9.032;2023-10-19T09:43:43;20.00;1.00
13470;DHT22;6807;48.682;9.032;2023-10-19T09:46:11;19.60;1.00
13470;DHT22;6807;48.682;9.032;2023-10-19T09:48:40;19.30;1.00
13470;DHT22;6807;48.682;9.032;2023-10-19T09:51:10;19.00;26.70
13470;DHT22;6807;48.682;9.032;2023-10-19T09:53:39;18.70;99.90
13470;DHT22;6807;48.682;9.032;2023-10-19T09:56:10;18.40;99.90
13470;DHT22;6807;48.682;9.032;2023-10-19T09:58:46;18.30;99.90
13470;DHT22;6807;48.682;9.032;2023-10-19T10:01:14;18.00;99.90
13470;DHT22;6807;48.682;9.032;2023-10-19T10:03:46;17.80;99.90
13470;DHT22;6807;48.682;9.032;2023-10-19T10:06:16;17.60;98.60
13470;DHT22;6807;48.682;9.032;2023-10-19T10:08:46;17.70;99.90
13470;DHT22;6807;48.682;9.032;2023-10-19T10:11:19;17.90;99.90
13470;DHT22;6807;48.682;9.032;2023-10-19T10:13:46;17.80;99.90
13470;DHT22;6807;48.682;9.032;2023-10-19T10:16:17;17.90;99.90
13470;DHT22;6807;48.682;9.032;2023-10-19T10:18:46;17.80;99.90
13470;DHT22;6807;48.682;9.032;2023-10-19T10:21:17;17.80;99.90
13470;DHT22;6807;48.682;9.032;2023-10-19T10:23:47;17.80;99.90
13470;DHT22;6807;48.682;9.032;2023-10-19T10:26:14;17.70;99.90
13470;DHT22;6807;48.682;9.032;2023-10-19T10:28:46;17.60;99.90
13470;DHT22;6807;48.682;9.032;2023-10-19T10:31:14;17.60;1.00
13470;DHT22;6807;48.682;9.032;2023-10-19T10:33:43;17.50;1.00
13470;DHT22;6807;48.682;9.032;2023-10-19T10:36:15;17.50;99.90
13470;DHT22;6807;48.682;9.032;2023-10-19T10:38:44;17.50;1.00
13470;DHT22;6807;48.682;9.032;2023-10-19T10:41:11;16.90;1.00
13470;DHT22;6807;48.682;9.032;2023-10-19T10:43:49;17.30;1.00
13470;DHT22;6807;48.682;9.032;2023-10-19T10:46:20;17.20;99.90
13470;DHT22;6807;48.682;9.032;2023-10-19T10:48:48;17.20;1.00
13470;DHT22;6807;48.682;9.032;2023-10-19T10:51:17;17.20;1.00
13470;DHT22;6807;48.682;9.032;2023-10-19T10:53:47;17.10;1.00
13470;DHT22;6807;48.682;9.032;2023-10-19T10:56:14;16.90;99.90
13470;DHT22;6807;48.682;9.032;2023-10-19T10:58:41;16.90;1.00
13470;DHT22;6807;48.682;9.032;2023-10-19T11:01:08;16.90;34.00
13470;DHT22;6807;48.682;9.032;2023-10-19T11:03:36;16.80;18.50
13470;DHT22;6807;48.682;9.032;2023-10-19T11:06:04;16.70;37.10
13470;DHT22;6807;48.682;9.032;2023-10-19T11:08:35;16.60;99.90
13470;DHT22;6807;48.682;9.032;2023-10-19T11:11:04;16.50;99.90
13470;DHT22;6807;48.682;9.032;2023-10-19T11:13:31;16.50;99.90
13470;DHT22;6807;48.682;9.032;2023-10-19T11:16:02;16.50;99.90
13470;DHT22;6807;48.682;9.032;2023-10-19T11:18:32;16.30;99.90
13470;DHT22;6807;48.682;9.032;2023-10-19T11:21:02;16.30;99.90
13470;DHT22;6807;48.682;9.032;2023-10-19T11:23:41;16.20;99.90
13470;DHT22;6807;48.682;9.032;2023-10-19T11:26:09;16.20;99.90
13470;DHT22;6807;48.682;9.032;2023-10-19T11:28:36;16.10;1.00
13470;DHT22;6807;48.682;9.032;2023-10-19T11:31:16;16.10;1.00
13470;DHT22;6807;48.682;9.032;2023-10-19T11:33:45;16.10;1.00
13470;DHT22;6807;48.682;9.032;2023-10-19T11:36:14;16.10;99.90
13470;DHT22;6807;48.682;9.032;2023-10-19T11:38:43;16.10;1.00
13470;DHT22;6807;48.682;9.032;2023-10-19T11:41:11;16.20;1.00
13470;DHT22;6807;48.682;9.032;2023-10-19T11:43:39;16.20;1.00
13470;DHT22;6807;48.682;9.032;2023-10-19T11:46:06;16.10;1.00
13470;DHT22;6807;48.682;9.032;2023-10-19T11:48:34;16.10;1.00
13470;DHT22;6807;48.682;9.032;2023-10-19T11:51:02;16.00;17.70
13470;DHT22;6807;48.682;9.032;2023-10-19T11:53:31;16.10;50.60
13470;DHT22;6807;48.682;9.032;2023-10-19T11:56:02;16.30;1.00
13470;DHT22;6807;48.682;9.032;2023-10-19T11:58:31;16.30;1.00
13470;DHT22;6807;48.682;9.032;2023-10-19T12:01:00;16.10;1.00
13470;DHT22;6807;48.682;9.032;2023-10-19T12:03:28;16.00;65.30
13470;DHT22;6807;48.682;9.032;2023-10-19T12:05:56;16.00;99.90
13470;DHT22;6807;48.682;9.032;2023-10-19T12:08:23;15.90;99.90
13470;DHT22;6807;48.682;9.032;2023-10-19T12:10:51;15.80;99.90
13470;DHT22;6807;48.682;9.032;2023-10-19T12:13:19;15.70;99.90
13470;DHT22;6807;48.682;9.032;2023-10-19T12:15:46;15.60;99.90
13470;DHT22;6807;48.682;9.032;2023-10-19T12:18:18;15.60;99.90
13470;DHT22;6807;48.682;9.032;2023-10-19T12:20:46;15.60;99.90
13470;DHT22;6807;48.682;9.032;2023-10-19T12:23:13;15.60;99.90
13470;DHT22;6807;48.682;9.032;2023-10-19T12:25:40;15.50;99.90
13470;DHT22;6807;48.682;9.032;2023-10-19T12:28:08;15.50;99.90
13470;DHT22;6807;48.682;9.032;2023-10-19T12:30:41;15.40;99.90
13470;DHT22;6807;48.682;9.032;2023-10-19T12:33:08;15.40;1.00
13470;DHT22;6807;48.682;9.032;2023-10-19T12:35:38;15.40;1.00
13470;DHT22;6807;48.682;9.032;2023-10-19T12:38:15;15.40;1.00
13470;DHT22;6807;48.682;9.032;2023-10-19T12:40:46;15.50;99.90
13470;DHT22;6807;48.682;9.032;2023-10-19T12:43:13;15.50;99.90
13470;DHT22;6807;48.682;9.032;2023-10-19T12:45:41;15.50;99.90
13470;DHT22;6807;48.682;9.032;2023-10-19T12:48:09;15.40;1.00
13470;DHT22;6807;48.682;9.032;2023-10-19T12:50:37;15.40;1.00
13470;DHT22;6807;48.682;9.032;2023-10-19T12:53:06;15.50;99.90
13470;DHT22;6807;48.682;9.032;2023-10-19T12:55:33;15.50;99.90
13470;DHT22;6807;48.682;9.032;2023-10-19T12:58:02;15.70;99.90
13470;DHT22;6807;48.682;9.032;2023-10-19T13:00:35;15.60;99.90
13470;DHT22;6807;48.682;9.032;2023-10-19T13:03:11;15.60;99.90
13470;DHT22;6807;48.682;9.032;2023-10-19T13:05:42;15.60;99.90
13470;DHT22;6807;48.682;9.032;2023-10-19T13:08:10;15.80;99.90
13470;DHT22;6807;48.682;9.032;2023-10-19T13:10:39;15.80;99.90
13470;DHT22;6807;48.682;9.032;2023-10-19T13:13:09;15.70;99.90
13470;DHT22;6807;48.682;9.032;2023-10-19T13:15:38;15.90;99.90
13470;DHT22;6807;48.682;9.032;2023-10-19T13:18:06;15.90;99.90
13470;DHT22;6807;48.682;9.032;2023-10-19T13:20:37;15.90;99.90
13470;DHT22;6807;48.682;9.032;2023-10-19T13:23:05;16.00;99.90
13470;DHT22;6807;48.682;9.032;2023-10-19T13:25:38;16.00;99.90
13470;DHT22;6807;48.682;9.032;2023-10-19T13:28:16;15.90;99.90
13470;DHT22;6807;48.682;9.032;2023-10-19T13:30:47;15.90;99.90
13470;DHT22;6807;48.682;9.032;2023-10-19T13:33:14;15.80;99.90
13470;DHT22;6807;48.682;9.032;2023-10-19T13:35:44;15.90;99.90
13470;DHT22;6807;48.682;9.032;2023-10-19T13:38:11;15.90;99.90
13470;DHT22;6807;48.682;9.032;2023-10-19T13:40:39;15.80;99.90
13470;DHT22;6807;48.682;9.032;2023-10-19T13:43:08;15.70;99.90
13470;DHT22;6807;48.682;9.032;2023-10-19T13:45:40;15.70;99.90
13470;DHT22;6807;48.682;9.032;2023-10-19T13:48:10;15.70;99.90
13470;DHT22;6807;48.682;9.032;2023-10-19T13:50:41;15.70;99.90
13470;DHT22;6807;48.682;9.032;2023-10-19T13:53:10;15.70;99.90
13470;DHT22;6807;48.682;9.032;2023-10-19T13:55:37;15.90;99.90
13470;DHT22;6807;48.682;9.032;2023-10-19T13:58:04;16.00;99.90
13470;DHT22;6807;48.682;9.032;2023-10-19T14:00:32;16.20;99.90
13470;DHT22;6807;48.682;9.032;2023-10-19T14:03:06;16.00;99.90
13470;DHT22;6807;48.682;9.032;2023-10-19T14:05:36;15.90;82.10
13470;DHT22;6807;48.682;9.032;2023-10-19T14:08:05;15.90;99.90
13470;DHT22;6807;48.682;9.032;2023-10-19T14:10:33;15.90;99.90
13470;DHT22;6807;48.682;9.032;2023-10-19T14:13:00;15.90;99.90
13470;DHT22;6807;48.682;9.032;2023-10-19T14:15:27;15.90;99.90
13470;DHT22;6807;48.682;9.032;2023-10-19T14:17:56;15.80;99.90
13470;DHT22;6807;48.682;9.032;2023-10-19T14:20:24;15.80;99.90
13470;DHT22;6807;48.682;9.032;2023-10-19T14:22:51;15.70;99.90
13470;DHT22;6807;48.682;9.032;2023-10-19T14:25:19;15.70;99.90
13470;DHT22;6807;48.682;9.032;2023-10-19T14:27:50;15.60;99.90
13470;DHT22;6807;48.682;9.032;2023-10-19T14:30:22;15.60;1.00
13470;DHT22;6807;48.682;9.032;2023-10-19T14:32:49;15.60;1.00
13470;DHT22;6807;48.682;9.032;2023-10-19T14:35:18;15.60;1.00
13470;DHT22;6807;48.682;9.032;2023-10-19T14:37:47;15.50;99.90
13470;DHT22;6807;48.682;9.032;2023-10-19T14:40:15;15.70;1.00
13470;DHT22;6807;48.682;9.032;2023-10-19T14:42:43;15.20;99.90
13470;DHT22;6807;48.682;9.032;2023-10-19T14:45:13;15.40;99.90
13470;DHT22;6807;48.682;9.032;2023-10-19T14:47:42;15.40;99.90
13470;DHT22;6807;48.682;9.032;2023-10-19T14:50:11;13.50;99.90
13470;DHT22;6807;48.682;9.032;2023-10-19T14:52:40;15.30;1.00
13470;DHT22;6807;48.682;9.032;2023-10-19T14:57:38;15.20;58.40
13470;DHT22;6807;48.682;9.032;2023-10-19T15:00:07;15.20;99.90
13470;DHT22;6807;48.682;9.032;2023-10-19T15:02:42;15.30;1.00
13470;DHT22;6807;48.682;9.032;2023-10-19T15:05:10;15.20;1.00
13470;DHT22;6807;48.682;9.032;2023-10-19T15:07:40;15.20;1.00
13470;DHT22;6807;48.682;9.032;2023-10-19T15:10:08;15.20;1.00
13470;DHT22;6807;48.682;9.032;2023-10-19T15:12:37;15.20;1.00
13470;DHT22;6807;48.682;9.032;2023-10-19T15:15:05;15.20;15.90
13470;DHT22;6807;48.682;9.032;2023-10-19T15:17:33;15.20;1.00
13470;DHT22;6807;48.682;9.032;2023-10-19T15:20:01;15.10;1.00
13470;DHT22;6807;48.682;9.032;2023-10-19T15:22:30;15.20;1.00
13470;DHT22;6807;48.682;9.032;2023-10-19T15:25:00;15.10;1.00
13470;DHT22;6807;48.682;9.032;2023-10-19T15:27:26;15.20;1.00
13470;DHT22;6807;48.682;9.032;2023-10-19T15:29:55;15.20;1.00
13470;DHT22;6807;48.682;9.032;2023-10-19T15:32:22;15.20;1.00
13470;DHT22;6807;48.682;9.032;2023-10-19T15:34:50;15.10;99.90
13470;DHT22;6807;48.682;9.032;2023-10-19T15:37:18;15.20;99.90
13470;DHT22;6807;48.682;9.032;2023-10-19T15:39:45;15.10;99.90
13470;DHT22;6807;48.682;9.032;2023-10-19T15:42:12;15.10;99.90
13470;DHT22;6807;48.682;9.032;2023-10-19T15:44:39;14.90;99.90
13470;DHT22;6807;48.682;9.032;2023-10-19T15:47:06;15.20;99.90
13470;DHT22;6807;48.682;9.032;2023-10-19T15:49:46;15.00;1.00
13470;DHT22;6807;48.682;9.032;2023-10-19T15:52:13;14.90;1.00
13470;DHT22;6807;48.682;9.032;2023-10-19T15:54:42;14.10;1.00
13470;DHT22;6807;48.682;9.032;2023-10-19T15:57:09;14.90;1.00
13470;DHT22;6807;48.682;9.032;2023-10-19T15:59:36;14.80;1.00
13470;DHT22;6807;48.682;9.032;2023-10-19T16:02:03;14.90;1.00
13470;DHT22;6807;48.682;9.032;2023-10-19T16:04:30;14.20;1.00
13470;DHT22;6807;48.682;9.032;2023-10-19T16:06:57;14.70;1.00
13470;DHT22;6807;48.682;9.032;2023-10-19T16:09:24;13.40;1.00
13470;DHT22;6807;48.682;9.032;2023-10-19T16:11:53;14.10;8.80
13470;DHT22;6807;48.682;9.032;2023-10-19T16:14:19;15.70;1.00
13470;DHT22;6807;48.682;9.032;2023-10-19T16:16:46;14.60;1.00
13470;DHT22;6807;48.682;9.032;2023-10-19T16:19:13;14.70;15.40
13470;DHT22;6807;48.682;9.032;2023-10-19T16:21:40;14.60;29.40
13470;DHT22;6807;48.682;9.032;2023-10-19T16:24:08;14.60;1.00
13470;DHT22;6807;48.682;9.032;2023-10-19T16:26:35;14.60;1.00
13470;DHT22;6807;48.682;9.032;2023-10-19T16:29:04;14.50;21.60
13470;DHT22;6807;48.682;9.032;2023-10-19T16:31:31;14.50;40.40
13470;DHT22;6807;48.682;9.032;2023-10-19T16:33:58;14.50;66.10
13470;DHT22;6807;48.682;9.032;2023-10-19T16:36:25;14.50;99.90
13470;DHT22;6807;48.682;9.032;2023-10-19T16:38:52;14.50;1.00
13470;DHT22;6807;48.682;9.032;2023-10-19T16:41:19;14.40;99.90
13470;DHT22;6807;48.682;9.032;2023-10-19T16:53:38;14.20;1.00
13470;DHT22;6807;48.682;9.032;2023-10-19T17:01:04;14.20;66.90
13470;DHT22;6807;48.682;9.032;2023-10-19T17:10:59;14.40;99.90
13470;DHT22;6807;48.682;9.032;2023-10-19T17:15:55;14.30;99.90
13470;DHT22;6807;48.682;9.032;2023-10-19T17:30:45;14.30;99.90
13470;DHT22;6807;48.682;9.032;2023-10-19T17:33:12;14.20;1.00
13470;DHT22;6807;48.682;9.032;2023-10-19T17:35:39;14.20;99.90
13470;DHT22;6807;48.682;9.032;2023-10-19T17:45:35;14.70;99.90
13470;DHT22;6807;48.682;9.032;2023-10-19T17:52:58;14.10;43.80
13470;DHT22;6807;48.682;9.032;2023-10-19T17:55:26;13.80;1.00
13470;DHT22;6807;48.682;9.032;2023-10-19T18:10:10;13.90;99.90